Time;durP1;ratioP1;P1;durP2;ratioP2;P2;SDS_P1;SDS_P2;PMS_P1;PMS_P2;Temp;Humidity;BMP_temperature;BMP_pressure;BME280_temperature;BME280_humidity;BME280_pressure;Samples;Min_cycle;Max_cycle;Signal;HPM_P1;HPM_P2
2023/11/11 00:00:00;;;;;;;11.63;1.95;;;26.20;22.30;;;;;;4988775;28;20064;-55
2023/11/11 00:02:27;;;;;;;7.82;1.77;;;26.50;22.30;;;;;;4989421;28;20415;-55
2023/11/11 00:04:53;;;;;;;10.90;1.92;;;26.50;22.00;;;;;;4989211;28;20071;-55
2023/11/11 00:07:20;;;;;;;7.20;1.73;;;26.10;21.90;;;;;;4988735;28;20535;-53
2023/11/11 00:09:46;;;;;;;15.27;2.25;;;25.90;22.20;;;;;;4991293;28;20070;-58
2023/11/11 00:12:13;;;;;;;12.93;2.13;;;25.70;22.10;;;;;;4989324;28;20052;-55
2023/11/11 00:14:39;;;;;;;9.93;2.28;;;25.50;22.10;;;;;;4988286;28;20059;-58
2023/11/11 00:17:07;;;;;;;13.43;3.75;;;25.40;22.10;;;;;;4986479;28;20081;-54
2023/11/11 00:19:34;;;;;;;14.88;3.38;;;25.30;22.20;;;;;;4989038;28;20056;-57
2023/11/11 00:22:01;;;;;;;10.38;2.90;;;25.30;22.20;;;;;;4986707;28;20065;-56
2023/11/11 00:24:27;;;;;;;41.65;19.77;;;25.20;22.50;;;;;;4986787;28;20721;-53
2023/11/11 00:26:55;;;;;;;34.22;19.70;;;25.10;22.60;;;;;;4987912;28;20060;-58
2023/11/11 00:29:22;;;;;;;9.10;4.85;;;25.00;22.00;;;;;;4986025;28;20064;-53
2023/11/11 00:31:49;;;;;;;36.45;18.08;;;24.80;22.50;;;;;;4985137;28;20063;-56
2023/11/11 00:34:20;;;;;;;9.07;2.00;;;24.60;22.40;;;;;;4988000;28;20506;-58
2023/11/11 00:36:48;;;;;;;12.35;2.55;;;24.50;22.60;;;;;;4986880;28;20086;-60
2023/11/11 00:39:15;;;;;;;14.82;2.60;;;24.30;23.00;;;;;;4987968;28;20089;-58
2023/11/11 00:41:43;;;;;;;15.13;3.38;;;24.20;23.50;;;;;;4989240;28;20594;-58
2023/11/11 00:44:09;;;;;;;38.95;18.35;;;24.10;23.70;;;;;;4987763;28;20076;-58
2023/11/11 00:46:39;;;;;;;19.42;5.03;;;23.90;24.80;;;;;;4987541;28;20055;-60
2023/11/11 00:49:11;;;;;;;31.20;5.82;;;23.70;26.30;;;;;;4987683;28;20058;-58
2023/11/11 00:51:39;;;;;;;22.40;6.43;;;23.50;26.70;;;;;;4988126;28;20100;-56
2023/11/11 00:54:08;;;;;;;20.70;6.38;;;23.40;27.80;;;;;;4987185;28;20067;-58
2023/11/11 00:56:35;;;;;;;22.60;5.60;;;23.20;26.90;;;;;;4984611;28;20593;-56
2023/11/11 00:59:03;;;;;;;13.93;4.90;;;23.10;26.80;;;;;;4989391;28;20159;-59
2023/11/11 01:01:29;;;;;;;24.52;5.75;;;22.90;27.00;;;;;;4988456;28;20601;-59
2023/11/11 01:03:56;;;;;;;19.30;5.22;;;22.80;27.50;;;;;;4987387;28;20483;-60
2023/11/11 01:06:22;;;;;;;23.27;4.75;;;22.60;27.30;;;;;;4988782;28;20083;-56
2023/11/11 01:08:50;;;;;;;15.65;4.50;;;22.50;27.30;;;;;;4985129;28;20344;-56
2023/11/11 01:11:17;;;;;;;17.40;4.40;;;22.30;27.10;;;;;;4985330;28;20436;-55
2023/11/11 01:13:43;;;;;;;20.67;4.68;;;22.20;27.70;;;;;;4985259;28;20065;-53
2023/11/11 01:16:10;;;;;;;18.83;4.57;;;22.10;27.80;;;;;;4981982;28;20548;-54
2023/11/11 01:18:36;;;;;;;22.20;4.10;;;22.00;27.80;;;;;;4987758;28;20169;-54
2023/11/11 01:21:03;;;;;;;17.60;3.88;;;21.90;28.60;;;;;;4985592;28;20103;-56
2023/11/11 01:23:33;;;;;;;45.63;22.77;;;21.70;28.20;;;;;;4988112;28;20077;-55
2023/11/11 01:26:02;;;;;;;38.47;20.02;;;21.70;28.80;;;;;;4986324;28;20626;-61
2023/11/11 01:28:29;;;;;;;28.73;4.45;;;21.60;29.20;;;;;;4985499;28;20161;-55
2023/11/11 01:30:56;;;;;;;41.63;20.13;;;21.50;29.00;;;;;;4986500;28;20100;-62
2023/11/11 01:33:24;;;;;;;21.90;5.13;;;21.40;29.00;;;;;;4985773;28;20079;-57
2023/11/11 01:35:51;;;;;;;33.47;5.22;;;21.20;28.80;;;;;;4986513;28;20498;-56
2023/11/11 01:38:20;;;;;;;29.70;5.30;;;21.20;29.20;;;;;;4987049;28;20091;-56
2023/11/11 01:40:47;;;;;;;26.98;4.85;;;21.10;29.60;;;;;;4986766;28;20116;-59
2023/11/11 01:43:15;;;;;;;23.83;4.75;;;21.00;29.40;;;;;;4984697;28;20077;-61
2023/11/11 01:45:43;;;;;;;42.22;17.48;;;20.90;29.50;;;;;;4985696;28;20215;-55
2023/11/11 01:48:14;;;;;;;24.80;5.00;;;20.80;30.30;;;;;;4987757;28;20077;-56
2023/11/11 01:50:44;;;;;;;30.92;5.30;;;20.70;30.20;;;;;;4985820;28;20079;-57
2023/11/11 01:53:14;;;;;;;28.20;6.22;;;20.60;30.60;;;;;;4986615;28;20440;-56
2023/11/11 01:55:41;;;;;;;25.27;5.10;;;20.50;30.50;;;;;;4987975;28;20164;-55
2023/11/11 01:58:09;;;;;;;37.90;8.65;;;20.50;30.60;;;;;;4986177;28;20077;-57
2023/11/11 02:00:38;;;;;;;40.97;9.63;;;20.50;31.70;;;;;;4986528;28;20130;-57
2023/11/11 02:03:06;;;;;;;69.88;10.05;;;20.40;31.40;;;;;;4985302;28;20455;-55
2023/11/11 02:05:33;;;;;;;56.38;9.73;;;20.40;31.90;;;;;;4985911;28;20094;-59
2023/11/11 02:08:02;;;;;;;42.65;8.77;;;20.30;32.20;;;;;;4984327;28;20514;-57
2023/11/11 02:10:31;;;;;;;47.28;8.80;;;20.20;32.30;;;;;;5030239;22;20206;-56
2023/11/11 02:12:59;;;;;;;41.28;8.32;;;20.10;32.40;;;;;;5040617;28;20092;-55
2023/11/11 02:15:29;;;;;;;51.03;8.75;;;20.10;32.40;;;;;;5043295;28;20069;-55
2023/11/11 02:18:05;;;;;;;53.38;8.10;;;20.00;33.00;;;;;;5042522;28;20068;-54
2023/11/11 02:20:33;;;;;;;70.00;22.48;;;19.90;33.00;;;;;;5042703;28;20075;-54
2023/11/11 02:23:01;;;;;;;45.28;7.63;;;19.90;33.30;;;;;;5046658;28;20099;-55
2023/11/11 02:25:28;;;;;;;42.70;8.07;;;19.80;33.40;;;;;;5046441;28;20099;-53
2023/11/11 02:27:55;;;;;;;65.35;23.08;;;19.70;33.80;;;;;;5044950;28;20420;-56
2023/11/11 02:30:21;;;;;;;74.18;24.85;;;19.70;33.60;;;;;;5046705;28;20171;-55
2023/11/11 02:32:48;;;;;;;60.92;9.90;;;19.70;33.20;;;;;;5045828;28;20068;-55
2023/11/11 02:35:15;;;;;;;64.88;26.38;;;19.60;33.70;;;;;;5045329;28;20094;-58
2023/11/11 02:37:42;;;;;;;64.90;18.13;;;19.60;34.20;;;;;;5047765;28;20567;-57
2023/11/11 02:40:12;;;;;;;68.32;26.13;;;19.50;34.60;;;;;;5046796;28;20062;-58
2023/11/11 02:42:41;;;;;;;52.30;10.63;;;19.40;34.70;;;;;;5044734;28;20081;-59
2023/11/11 02:45:11;;;;;;;63.63;10.20;;;19.40;34.70;;;;;;5035158;28;20059;-58
2023/11/11 02:47:38;;;;;;;57.00;10.93;;;19.30;34.90;;;;;;5030924;28;20065;-56
2023/11/11 02:50:05;;;;;;;64.50;10.02;;;19.30;34.90;;;;;;5027912;28;20424;-57
2023/11/11 02:52:31;;;;;;;65.30;22.40;;;19.20;35.10;;;;;;5031718;28;20169;-59
2023/11/11 02:54:58;;;;;;;47.65;11.15;;;19.20;34.30;;;;;;5026719;28;20057;-54
2023/11/11 02:57:24;;;;;;;56.72;10.55;;;19.20;34.60;;;;;;5035325;22;20106;-57
2023/11/11 02:59:51;;;;;;;59.45;12.23;;;19.10;35.10;;;;;;5023250;28;20522;-56
2023/11/11 03:02:17;;;;;;;68.65;13.73;;;19.00;36.30;;;;;;5018286;28;20065;-56
2023/11/11 03:04:44;;;;;;;59.00;14.00;;;19.00;37.20;;;;;;5013139;28;20078;-58
2023/11/11 03:07:11;;;;;;;81.05;16.05;;;19.00;37.00;;;;;;5015281;28;20154;-56
2023/11/11 03:09:40;;;;;;;60.30;14.75;;;18.90;36.90;;;;;;5018587;28;20153;-53
2023/11/11 03:12:09;;;;;;;75.50;17.52;;;18.90;36.80;;;;;;5021352;28;20603;-54
2023/11/11 03:14:36;;;;;;;85.57;17.55;;;18.80;36.90;;;;;;5020276;28;20636;-56
2023/11/11 03:17:02;;;;;;;93.43;19.40;;;18.80;37.10;;;;;;5017597;28;20436;-56
2023/11/11 03:19:30;;;;;;;86.35;20.60;;;18.70;37.40;;;;;;5020452;28;20087;-55
2023/11/11 03:21:56;;;;;;;92.68;19.73;;;18.70;37.50;;;;;;5019167;28;20069;-55
2023/11/11 03:24:22;;;;;;;78.40;19.45;;;18.70;37.90;;;;;;5018218;28;20172;-53
2023/11/11 03:26:49;;;;;;;71.07;18.77;;;18.60;37.90;;;;;;5016834;28;20154;-52
2023/11/11 03:29:15;;;;;;;83.85;19.90;;;18.60;38.10;;;;;;5019046;28;20528;-57
2023/11/11 03:31:42;;;;;;;89.97;21.75;;;18.50;37.90;;;;;;5018136;28;20175;-60
2023/11/11 03:34:08;;;;;;;123.57;37.03;;;18.50;38.30;;;;;;5020743;28;20093;-56
2023/11/11 03:36:35;;;;;;;90.55;23.05;;;18.50;38.50;;;;;;5019981;28;20070;-59
2023/11/11 03:39:01;;;;;;;82.25;21.55;;;18.30;38.60;;;;;;5020608;28;20057;-56
2023/11/11 03:41:28;;;;;;;85.95;22.52;;;18.30;39.00;;;;;;5020344;28;20465;-57
2023/11/11 03:43:54;;;;;;;80.28;21.48;;;18.30;39.40;;;;;;5016134;28;20415;-56
2023/11/11 03:46:20;;;;;;;95.53;22.88;;;18.20;39.00;;;;;;5014951;28;20079;-57
2023/11/11 03:48:47;;;;;;;81.30;21.42;;;18.20;39.10;;;;;;5021280;28;20080;-55
2023/11/11 03:51:13;;;;;;;108.90;23.17;;;18.10;39.40;;;;;;5020705;28;20154;-54
2023/11/11 03:53:40;;;;;;;96.65;24.60;;;18.10;39.60;;;;;;5021726;28;20071;-57
2023/11/11 03:56:10;;;;;;;100.20;29.85;;;18.10;40.00;;;;;;5020770;28;20149;-59
2023/11/11 03:58:36;;;;;;;139.95;51.45;;;18.00;40.00;;;;;;5020642;28;20105;-58
2023/11/11 04:01:03;;;;;;;161.52;61.70;;;18.00;39.80;;;;;;5022004;28;20085;-53
2023/11/11 04:03:29;;;;;;;154.68;60.60;;;17.90;39.50;;;;;;5019596;28;20570;-56
2023/11/11 04:05:56;;;;;;;180.85;58.35;;;17.90;40.00;;;;;;5022550;28;20096;-57
2023/11/11 04:08:22;;;;;;;157.38;56.13;;;17.90;40.40;;;;;;5013867;28;20454;-55
2023/11/11 04:10:50;;;;;;;153.70;55.20;;;17.90;40.20;;;;;;5016557;28;20153;-55
2023/11/11 04:13:16;;;;;;;148.40;51.70;;;17.80;40.20;;;;;;5015781;28;20148;-54
2023/11/11 04:15:43;;;;;;;158.73;52.28;;;17.80;40.40;;;;;;5018221;28;20115;-57
2023/11/11 04:18:09;;;;;;;151.23;50.78;;;17.80;40.60;;;;;;5012987;28;20082;-56
2023/11/11 04:20:36;;;;;;;157.85;46.85;;;17.70;40.80;;;;;;5010405;28;20600;-55
2023/11/11 04:23:02;;;;;;;142.45;48.08;;;17.60;41.10;;;;;;5018583;28;20554;-58
2023/11/11 04:25:29;;;;;;;146.55;47.60;;;17.60;41.20;;;;;;5013945;28;20086;-57
2023/11/11 04:27:56;;;;;;;150.48;47.20;;;17.50;41.10;;;;;;5019095;28;20096;-56
2023/11/11 04:30:23;;;;;;;151.48;47.83;;;17.50;41.50;;;;;;5019759;28;20159;-55
2023/11/11 04:32:49;;;;;;;164.85;47.47;;;17.50;41.70;;;;;;5017004;28;20069;-57
2023/11/11 04:35:16;;;;;;;178.50;47.45;;;17.50;41.40;;;;;;5019618;28;20074;-54
2023/11/11 04:37:42;;;;;;;158.63;45.92;;;17.40;41.60;;;;;;5011619;28;20135;-58
2023/11/11 04:40:10;;;;;;;151.77;46.33;;;17.40;42.00;;;;;;5019254;28;20558;-57
2023/11/11 04:42:38;;;;;;;152.13;43.72;;;17.40;42.00;;;;;;5019980;28;21189;-55
2023/11/11 04:45:06;;;;;;;192.68;47.55;;;17.40;41.70;;;;;;5017792;28;20135;-56
2023/11/11 04:47:33;;;;;;;148.32;44.83;;;17.30;42.10;;;;;;5015497;28;20089;-60
2023/11/11 04:49:59;;;;;;;153.00;45.97;;;17.30;42.30;;;;;;5015361;28;20109;-59
2023/11/11 04:52:26;;;;;;;160.40;48.22;;;17.30;42.20;;;;;;5017592;28;20441;-55
2023/11/11 04:54:53;;;;;;;166.68;51.38;;;17.30;42.30;;;;;;5024259;28;20088;-55
2023/11/11 04:57:19;;;;;;;150.05;50.63;;;17.30;43.10;;;;;;5015587;28;20098;-55
2023/11/11 04:59:46;;;;;;;170.63;53.45;;;17.20;42.00;;;;;;5017409;28;20451;-59
2023/11/11 05:02:13;;;;;;;151.55;46.35;;;17.20;41.10;;;;;;5012800;28;20451;-57
2023/11/11 05:04:40;;;;;;;143.20;42.92;;;17.20;40.30;;;;;;5012538;28;20105;-55
2023/11/11 05:07:06;;;;;;;151.35;43.53;;;17.20;40.30;;;;;;5015313;28;20092;-56
2023/11/11 05:09:33;;;;;;;121.25;44.20;;;17.20;40.10;;;;;;5013640;28;20071;-56
2023/11/11 05:12:00;;;;;;;140.00;43.17;;;17.10;39.50;;;;;;5020549;28;20062;-58
2023/11/11 05:14:26;;;;;;;125.97;38.42;;;17.10;39.50;;;;;;5018146;28;20166;-60
2023/11/11 05:16:54;;;;;;;132.50;34.10;;;17.10;39.50;;;;;;5010887;28;20079;-60
2023/11/11 05:19:20;;;;;;;103.57;30.33;;;17.10;38.60;;;;;;5015084;28;20082;-59
2023/11/11 05:21:48;;;;;;;103.93;31.73;;;17.10;38.80;;;;;;5018164;28;20160;-59
2023/11/11 05:24:16;;;;;;;113.35;29.92;;;17.10;38.90;;;;;;5022520;28;20088;-56
2023/11/11 05:26:43;;;;;;;98.40;26.73;;;17.00;38.90;;;;;;5020800;28;22432;-57
2023/11/11 05:29:10;;;;;;;116.07;30.25;;;17.00;38.80;;;;;;5019363;28;20100;-56
2023/11/11 05:31:37;;;;;;;73.68;23.90;;;17.00;38.50;;;;;;5021253;28;20414;-57
2023/11/11 05:34:03;;;;;;;99.97;36.90;;;17.00;38.40;;;;;;5022976;28;20105;-55
2023/11/11 05:36:32;;;;;;;103.88;36.90;;;16.90;38.10;;;;;;5015153;28;20587;-56
2023/11/11 05:38:58;;;;;;;87.68;20.63;;;16.90;38.30;;;;;;5016762;28;20082;-58
2023/11/11 05:41:25;;;;;;;70.03;19.35;;;16.90;38.30;;;;;;5015218;28;20542;-60
2023/11/11 05:43:51;;;;;;;57.95;17.70;;;16.80;37.70;;;;;;5023272;28;20071;-56
2023/11/11 05:46:18;;;;;;;72.10;18.55;;;16.80;37.40;;;;;;5014295;28;20593;-57
2023/11/11 05:48:44;;;;;;;69.28;20.70;;;16.80;37.30;;;;;;5016058;28;20563;-55
2023/11/11 05:51:12;;;;;;;65.68;15.93;;;16.80;37.50;;;;;;5015723;28;20102;-54
2023/11/11 05:53:39;;;;;;;58.60;14.57;;;16.70;37.50;;;;;;5015793;28;20072;-56
2023/11/11 05:56:08;;;;;;;55.75;14.30;;;16.70;37.20;;;;;;5015783;28;20093;-55
2023/11/11 05:58:35;;;;;;;68.93;14.52;;;16.70;37.00;;;;;;5016818;28;20097;-59
2023/11/11 06:01:05;;;;;;;74.55;32.50;;;16.70;37.90;;;;;;5016470;28;20160;-58
2023/11/11 06:03:32;;;;;;;62.92;16.42;;;16.60;37.80;;;;;;5012603;28;20070;-60
2023/11/11 06:06:00;;;;;;;71.43;17.35;;;16.60;38.00;;;;;;5014300;28;20086;-55
2023/11/11 06:08:27;;;;;;;66.47;15.77;;;16.60;37.60;;;;;;5014373;28;21238;-56
2023/11/11 06:10:54;;;;;;;71.72;14.75;;;16.50;37.00;;;;;;5013898;28;20117;-55
2023/11/11 06:13:20;;;;;;;61.50;13.38;;;16.50;36.70;;;;;;5012521;28;20074;-55
2023/11/11 06:15:47;;;;;;;46.67;14.05;;;16.50;36.70;;;;;;5012620;28;20070;-52
2023/11/11 06:18:13;;;;;;;46.70;14.77;;;16.50;35.80;;;;;;5015608;28;20580;-55
2023/11/11 06:20:39;;;;;;;58.80;14.50;;;16.50;34.70;;;;;;5012838;28;20083;-59
2023/11/11 06:23:06;;;;;;;47.42;12.68;;;16.50;34.20;;;;;;5015276;28;20099;-55
2023/11/11 06:25:33;;;;;;;46.42;11.90;;;16.50;33.70;;;;;;5020923;28;20555;-57
2023/11/11 06:27:59;;;;;;;43.67;9.77;;;16.50;33.50;;;;;;5013095;28;20121;-57
2023/11/11 06:30:26;;;;;;;36.38;8.20;;;16.50;32.70;;;;;;5018326;28;20070;-56
2023/11/11 06:32:53;;;;;;;35.85;8.40;;;16.50;32.10;;;;;;5020448;28;20075;-56
2023/11/11 06:35:19;;;;;;;23.45;7.35;;;16.50;32.20;;;;;;5013782;28;20448;-56
2023/11/11 06:37:46;;;;;;;31.63;6.68;;;16.60;32.30;;;;;;5015049;28;20142;-57
2023/11/11 06:40:13;;;;;;;23.92;6.25;;;16.60;32.00;;;;;;5020023;28;20483;-52
2023/11/11 06:42:40;;;;;;;21.40;6.30;;;16.60;32.50;;;;;;5019648;28;20081;-56
2023/11/11 06:45:07;;;;;;;30.63;6.22;;;16.60;33.70;;;;;;5020601;28;20198;-55
2023/11/11 06:47:34;;;;;;;25.88;5.63;;;16.50;33.20;;;;;;5021355;28;20168;-58
2023/11/11 06:50:00;;;;;;;21.27;5.68;;;16.50;32.90;;;;;;5018370;28;20079;-57
2023/11/11 06:52:27;;;;;;;23.48;4.53;;;16.50;32.50;;;;;;5020013;28;20072;-58
2023/11/11 06:54:53;;;;;;;22.42;4.97;;;16.50;31.20;;;;;;5017659;28;20090;-56
2023/11/11 06:57:20;;;;;;;22.70;4.78;;;16.50;29.80;;;;;;5017628;28;20145;-60
2023/11/11 06:59:46;;;;;;;21.50;4.47;;;16.50;28.80;;;;;;5020494;28;20584;-60
2023/11/11 07:02:13;;;;;;;14.63;4.35;;;16.50;28.30;;;;;;5014479;28;20145;-62
2023/11/11 07:04:48;;;;;;;22.98;4.22;;;16.50;27.80;;;;;;5016409;28;20092;-62
2023/11/11 07:07:15;;;;;;;22.08;4.75;;;16.50;27.80;;;;;;5014194;28;20083;-61
2023/11/11 07:09:42;;;;;;;15.63;4.20;;;16.50;27.80;;;;;;5018469;28;20417;-60
2023/11/11 07:12:12;;;;;;;17.88;4.72;;;16.50;27.70;;;;;;5020156;28;20067;-66
2023/11/11 07:14:39;;;;;;;14.40;3.85;;;16.60;28.20;;;;;;5024534;28;20087;-61
2023/11/11 07:17:05;;;;;;;19.98;4.95;;;16.50;28.60;;;;;;5019764;28;20075;-61
2023/11/11 07:19:32;;;;;;;15.43;4.53;;;16.50;29.80;;;;;;5022531;28;20110;-60
2023/11/11 07:21:58;;;;;;;15.82;3.63;;;16.40;29.70;;;;;;5012568;28;20125;-61
2023/11/11 07:24:25;;;;;;;16.88;4.65;;;16.40;29.50;;;;;;5021521;28;20099;-61
2023/11/11 07:26:51;;;;;;;15.50;4.90;;;16.40;29.70;;;;;;5016393;28;20178;-60
2023/11/11 07:29:18;;;;;;;17.75;4.88;;;16.30;30.80;;;;;;5019339;28;20086;-61
2023/11/11 07:31:46;;;;;;;20.90;5.55;;;16.30;28.90;;;;;;5021838;28;20446;-61
2023/11/11 07:34:13;;;;;;;19.98;5.20;;;16.30;27.90;;;;;;5015672;28;20419;-61
2023/11/11 07:36:40;;;;;;;16.73;4.95;;;16.40;27.70;;;;;;5018813;28;20162;-62
2023/11/11 07:39:07;;;;;;;20.00;4.93;;;16.40;27.70;;;;;;5017661;28;20453;-64
2023/11/11 07:41:33;;;;;;;16.90;4.60;;;16.50;28.00;;;;;;5015474;28;20079;-59
2023/11/11 07:44:04;;;;;;;23.30;5.15;;;16.40;28.10;;;;;;5013228;28;20079;-62
2023/11/11 07:46:34;;;;;;;18.00;4.75;;;16.50;28.30;;;;;;5014470;28;20096;-61
2023/11/11 07:49:00;;;;;;;19.88;5.03;;;16.50;28.40;;;;;;5014151;28;20075;-61
2023/11/11 07:51:27;;;;;;;27.75;6.75;;;16.40;29.00;;;;;;5025589;28;20382;-57
2023/11/11 07:53:55;;;;;;;29.75;8.82;;;16.40;29.40;;;;;;5013782;28;20078;-61
2023/11/11 07:56:23;;;;;;;23.90;8.93;;;16.30;30.20;;;;;;5014141;28;20082;-60
2023/11/11 07:58:53;;;;;;;23.38;9.73;;;16.30;30.90;;;;;;5021793;28;20105;-60
2023/11/11 08:01:22;;;;;;;23.35;9.48;;;16.20;31.10;;;;;;5018726;28;20567;-62
2023/11/11 08:03:48;;;;;;;28.83;10.07;;;16.20;31.20;;;;;;5016402;28;20079;-60
2023/11/11 08:06:15;;;;;;;26.42;9.27;;;16.10;31.80;;;;;;5024558;28;20083;-62
2023/11/11 08:08:42;;;;;;;42.92;15.40;;;16.10;31.80;;;;;;5023764;28;20433;-64
2023/11/11 08:11:08;;;;;;;115.43;98.40;;;16.00;31.70;;;;;;5019507;28;20074;-59
2023/11/11 08:13:35;;;;;;;42.88;25.23;;;16.00;31.80;;;;;;5022099;28;20548;-62
2023/11/11 08:16:02;;;;;;;51.13;35.65;;;16.00;32.80;;;;;;5014851;28;20076;-62
2023/11/11 08:18:29;;;;;;;26.27;12.45;;;16.00;32.90;;;;;;5015904;28;20532;-62
2023/11/11 08:20:55;;;;;;;21.60;8.32;;;16.00;32.60;;;;;;5023011;28;20474;-61
2023/11/11 08:23:22;;;;;;;27.73;8.10;;;15.90;33.30;;;;;;5017417;28;20088;-61
2023/11/11 08:25:48;;;;;;;28.05;8.00;;;15.80;33.30;;;;;;5018262;28;20542;-60
2023/11/11 08:28:14;;;;;;;25.42;8.70;;;15.80;32.40;;;;;;5021424;28;20081;-59
2023/11/11 08:30:41;;;;;;;25.70;9.40;;;15.70;31.90;;;;;;5019232;28;20135;-61
2023/11/11 08:33:08;;;;;;;;;;;15.60;32.00;;;;;;5021227;28;20167;-61
2023/11/11 08:35:34;;;;;;;33.83;8.50;;;15.60;32.10;;;;;;5017794;28;19972;-59
2023/11/11 08:38:01;;;;;;;29.48;7.22;;;15.60;31.50;;;;;;5020060;28;20087;-60
2023/11/11 08:40:28;;;;;;;20.95;6.50;;;15.60;31.70;;;;;;5019143;28;20826;-60
2023/11/11 08:42:54;;;;;;;15.70;6.38;;;15.60;31.60;;;;;;5018567;28;21191;-58
2023/11/11 08:45:20;;;;;;;;;;;15.60;31.20;;;;;;5019068;28;20188;-58
2023/11/11 08:47:47;;;;;;;16.42;5.20;;;15.60;30.10;;;;;;5015690;28;19972;-61
2023/11/11 08:50:13;;;;;;;17.40;5.07;;;15.60;30.10;;;;;;5018775;28;20076;-60
2023/11/11 08:52:43;;;;;;;22.00;4.80;;;15.60;30.20;;;;;;5018746;28;20082;-60
2023/11/11 08:55:10;;;;;;;17.95;5.28;;;15.60;30.40;;;;;;5020209;28;20109;-62
2023/11/11 08:57:38;;;;;;;11.93;4.25;;;15.60;29.20;;;;;;5019803;28;20592;-60
2023/11/11 09:00:08;;;;;;;15.98;4.50;;;15.60;28.40;;;;;;5019722;28;20534;-61
2023/11/11 09:02:38;;;;;;;18.75;4.93;;;15.70;28.20;;;;;;5019419;28;20218;-60
2023/11/11 09:05:05;;;;;;;14.27;5.07;;;15.70;28.30;;;;;;5019004;28;20171;-60
2023/11/11 09:07:34;;;;;;;18.35;5.50;;;15.70;28.30;;;;;;5019612;28;20131;-64
2023/11/11 09:10:02;;;;;;;13.60;5.35;;;15.70;28.00;;;;;;5020913;28;20603;-60
2023/11/11 09:12:29;;;;;;;13.13;5.63;;;15.70;28.00;;;;;;5019590;28;20135;-63
2023/11/11 09:14:56;;;;;;;11.63;5.78;;;15.70;27.50;;;;;;5019049;28;20089;-61
2023/11/11 09:17:24;;;;;;;17.48;6.60;;;15.70;27.60;;;;;;5019916;28;20479;-59
2023/11/11 09:19:53;;;;;;;16.95;5.82;;;15.70;27.60;;;;;;5019446;28;20441;-61
2023/11/11 09:22:20;;;;;;;12.60;4.13;;;15.60;27.40;;;;;;5019915;28;20081;-60
2023/11/11 09:24:46;;;;;;;7.50;3.38;;;15.60;27.30;;;;;;5018591;28;20132;-60
2023/11/11 09:27:13;;;;;;;16.75;5.15;;;15.70;27.00;;;;;;5014331;28;20077;-60
2023/11/11 09:29:39;;;;;;;16.67;6.18;;;15.70;26.30;;;;;;5017005;28;20076;-60
2023/11/11 09:32:06;;;;;;;10.93;4.50;;;15.80;26.10;;;;;;5021825;28;20111;-60
2023/11/11 09:34:32;;;;;;;11.57;3.15;;;15.80;26.40;;;;;;5014296;28;20079;-61
2023/11/11 09:36:59;;;;;;;5.85;2.92;;;15.80;25.40;;;;;;5013758;28;20582;-59
2023/11/11 09:39:25;;;;;;;15.75;3.53;;;15.80;25.10;;;;;;5014896;28;20080;-62
2023/11/11 09:41:52;;;;;;;10.57;3.28;;;15.80;25.20;;;;;;5016850;28;20111;-60
2023/11/11 09:44:19;;;;;;;15.95;4.28;;;15.90;25.10;;;;;;5013299;28;20079;-61
2023/11/11 09:46:54;;;;;;;11.57;5.03;;;15.90;25.10;;;;;;5011620;28;20072;-60
2023/11/11 09:49:21;;;;;;;15.25;8.40;;;15.90;24.90;;;;;;5017124;28;20068;-62
2023/11/11 09:51:49;;;;;;;17.85;8.60;;;15.90;24.80;;;;;;5010951;28;20209;-61
2023/11/11 09:54:16;;;;;;;16.98;8.95;;;15.90;24.80;;;;;;5015214;28;20125;-61
2023/11/11 09:56:43;;;;;;;16.30;7.90;;;15.90;25.20;;;;;;5020281;28;20081;-61
2023/11/11 09:59:15;;;;;;;12.18;6.07;;;15.80;25.20;;;;;;5012683;28;20170;-60
2023/11/11 10:01:44;;;;;;;13.60;5.10;;;15.80;25.00;;;;;;5014831;28;20173;-61
2023/11/11 10:04:10;;;;;;;20.17;3.97;;;15.80;25.10;;;;;;5016189;28;20081;-60
2023/11/11 10:06:38;;;;;;;14.85;3.28;;;15.70;25.10;;;;;;5013321;28;20141;-59
2023/11/11 10:09:08;;;;;;;17.75;4.28;;;15.70;25.10;;;;;;5014975;28;20530;-62
2023/11/11 10:11:36;;;;;;;12.77;3.58;;;15.60;25.10;;;;;;5013730;28;20083;-61
2023/11/11 10:14:03;;;;;;;11.15;3.63;;;15.60;25.10;;;;;;5013763;28;20068;-60
2023/11/11 10:16:32;;;;;;;10.23;3.40;;;15.60;25.30;;;;;;5011232;28;20170;-61
2023/11/11 10:18:58;;;;;;;14.18;6.60;;;15.60;25.50;;;;;;5019243;28;20101;-60
2023/11/11 10:21:26;;;;;;;23.13;9.80;;;15.60;25.30;;;;;;5013284;28;20078;-61
2023/11/11 10:23:57;;;;;;;27.80;11.43;;;15.60;25.40;;;;;;5021103;28;20077;-59
2023/11/11 10:26:23;;;;;;;25.13;10.95;;;15.50;25.60;;;;;;5013935;28;20388;-61
2023/11/11 10:28:51;;;;;;;23.98;9.27;;;15.50;26.00;;;;;;5013610;28;20790;-61
2023/11/11 10:31:19;;;;;;;19.00;6.00;;;15.40;26.30;;;;;;5013566;28;20075;-59
2023/11/11 10:33:46;;;;;;;12.50;4.22;;;15.30;26.80;;;;;;5011773;28;20070;-61
2023/11/11 10:36:14;;;;;;;18.10;4.20;;;15.30;27.40;;;;;;5013108;28;20083;-61
2023/11/11 10:38:42;;;;;;;22.80;5.30;;;15.20;27.60;;;;;;5023574;28;20082;-60
2023/11/11 10:41:09;;;;;;;16.35;4.32;;;15.20;28.30;;;;;;5012188;28;20089;-62
2023/11/11 10:43:37;;;;;;;16.70;5.35;;;15.20;28.30;;;;;;5018120;28;20083;-59
2023/11/11 10:46:04;;;;;;;19.30;5.85;;;15.10;28.80;;;;;;5014693;28;20093;-60
2023/11/11 10:48:31;;;;;;;16.80;6.03;;;15.00;28.60;;;;;;5014559;28;20065;-61
2023/11/11 10:50:58;;;;;;;19.42;5.80;;;14.90;29.00;;;;;;5020729;28;20167;-60
2023/11/11 10:53:27;;;;;;;19.10;6.03;;;14.90;29.00;;;;;;5019446;28;20086;-61
2023/11/11 10:55:55;;;;;;;14.70;5.75;;;14.80;28.90;;;;;;5018683;28;20075;-61
2023/11/11 10:58:22;;;;;;;17.80;6.60;;;14.80;29.50;;;;;;5015264;28;20101;-60
2023/11/11 11:00:50;;;;;;;19.52;5.75;;;14.80;29.50;;;;;;5020969;28;20086;-60
2023/11/11 11:03:21;;;;;;;22.83;6.53;;;14.70;29.50;;;;;;5018173;28;20099;-59
2023/11/11 11:06:10;;;;;;;16.42;5.63;;;14.60;30.10;;;;;;5017138;28;20087;-60
2023/11/11 11:09:15;;;;;;;18.92;5.72;;;14.60;29.80;;;;;;5017980;28;20080;-59
2023/11/11 11:11:47;;;;;;;16.63;5.25;;;14.50;31.20;;;;;;5013402;28;20100;-63
2023/11/11 11:14:39;;;;;;;19.70;5.40;;;14.40;30.00;;;;;;5019987;28;20079;-60
2023/11/11 11:17:08;;;;;;;17.20;5.70;;;14.30;30.30;;;;;;5017654;28;20078;-59
2023/11/11 11:19:51;;;;;;;18.08;5.55;;;14.20;30.40;;;;;;5018879;28;20072;-60
2023/11/11 11:22:19;;;;;;;20.23;5.53;;;14.20;30.70;;;;;;5017669;28;20481;-60
2023/11/11 11:24:46;;;;;;;19.85;5.03;;;14.20;30.80;;;;;;5015253;28;20086;-60
2023/11/11 11:27:13;;;;;;;15.27;4.22;;;14.20;31.30;;;;;;5015700;28;20071;-62
2023/11/11 11:29:40;;;;;;;18.92;4.47;;;14.20;31.40;;;;;;5015407;28;20235;-60
2023/11/11 11:32:11;;;;;;;14.75;4.72;;;14.20;31.30;;;;;;5016963;28;20572;-63
2023/11/11 11:34:42;;;;;;;14.63;4.43;;;14.20;31.60;;;;;;5017002;28;20440;-61
2023/11/11 11:37:11;;;;;;;25.73;5.32;;;14.20;32.00;;;;;;5021763;28;20127;-61
2023/11/11 11:39:51;;;;;;;14.80;5.05;;;14.10;31.90;;;;;;5020839;28;20080;-59
2023/11/11 11:42:22;;;;;;;19.88;4.90;;;14.10;32.00;;;;;;5015241;28;20072;-61
2023/11/11 11:44:56;;;;;;;15.18;4.85;;;14.10;32.40;;;;;;5015001;28;20086;-61
2023/11/11 11:47:27;;;;;;;16.83;4.75;;;14.00;32.00;;;;;;5013460;28;20212;-61
2023/11/11 11:49:55;;;;;;;21.65;4.72;;;14.00;32.60;;;;;;5019032;28;20153;-60
2023/11/11 11:52:22;;;;;;;15.98;4.63;;;13.80;32.50;;;;;;5015130;28;20125;-59
2023/11/11 11:54:49;;;;;;;13.65;4.45;;;13.80;32.50;;;;;;5015397;28;20069;-62
2023/11/11 11:57:17;;;;;;;18.33;4.00;;;13.90;32.90;;;;;;5041819;28;20083;-61
2023/11/11 11:59:46;;;;;;;17.65;4.47;;;13.80;33.10;;;;;;5011342;28;20069;-60
2023/11/11 12:02:15;;;;;;;18.48;4.20;;;13.80;33.30;;;;;;5025974;28;20455;-59
2023/11/11 12:04:42;;;;;;;20.73;4.57;;;13.70;33.30;;;;;;5012631;28;20450;-61
2023/11/11 12:07:12;;;;;;;19.23;5.30;;;13.60;33.70;;;;;;5014831;28;20068;-61
2023/11/11 12:09:40;;;;;;;18.10;4.70;;;13.40;33.40;;;;;;5013492;28;20062;-61
2023/11/11 12:12:08;;;;;;;27.00;5.25;;;13.40;33.70;;;;;;5019610;28;20058;-61
2023/11/11 12:14:36;;;;;;;31.33;5.18;;;13.30;34.10;;;;;;5016563;28;20140;-61
2023/11/11 12:17:03;;;;;;;16.80;4.43;;;13.40;35.00;;;;;;5016024;28;20068;-60
2023/11/11 12:19:34;;;;;;;17.13;4.70;;;13.40;35.60;;;;;;5016017;28;20064;-59
2023/11/11 12:22:03;;;;;;;14.27;3.83;;;13.40;35.60;;;;;;5014555;28;20057;-62
2023/11/11 12:24:31;;;;;;;17.58;3.10;;;13.30;35.10;;;;;;5014698;28;20068;-60
2023/11/11 12:27:00;;;;;;;23.60;4.63;;;13.40;34.90;;;;;;5017751;28;20549;-60
2023/11/11 12:29:27;;;;;;;13.00;3.25;;;13.40;35.10;;;;;;5025075;28;20148;-61
2023/11/11 12:31:55;;;;;;;15.65;3.63;;;13.30;35.40;;;;;;5017020;28;20075;-62
2023/11/11 12:34:23;;;;;;;17.50;3.70;;;13.30;35.80;;;;;;5014242;28;20072;-58